Accueil
METAR-TAF:

METAR-TAF

Aéroports :

Aéroport de Franceville

Franceville, Gabon

latitude: 01-39S, longitude: 013-26E, altitude: 441 m

Observation

Le bulletin a été fait il y a 35 minutes, à 18:00 UTC
Vent 3 kt de nord
Température 27°C
Humidité 79%
Pression 1011 hPa
Visibilité: 8000 m
Nuages épars à une hauteur de 1000 ft
Nuages épars à une hauteur de 2600 ft

METAR: FOON 241800Z 35003KT 8000 SCT010 SCT026 27/23 Q1011

Heure: 19:35 (18:35 UTC)


TAF: absent

Observations et prévisions météorologiques de plus de 4000 aéroports (messages METAR et TAF).

Les stations disponibles sont représentées par des disques jaunes et rouges sur la carte.

Passer la souris dessus pour voir le nom de la station.

Cliquer dessus pour voir les observations et prévisions météorologiques.

Pour changer de carte: cliquez sur les boutons verts avec une croix noire pour zoomer, sur le bouton vert avec un tiret pour effectuer un zoom arrière, ou sur les flèches vertes pour les cartes adjacentes.


METAR-TAF: